Time,TemperatureF,DewpointF,PressureIn,WindDirection,WindDirectionDegrees,WindSpeedMPH,WindSpeedGustMPH,Humidity,HourlyPrecipIn,Conditions,Clouds,dailyrainin,SoftwareType,DateUTC
2013-10-02 00:00:00,46.0,-99.9,-100.00,SW,233,6.0,7.0,-999,-99.99,,,-99.99,,2013-10-02 06:00:00,
2013-10-02 00:22:00,46.0,-99.9,-100.00,SW,233,6.0,7.0,-999,-99.99,,,-99.99,,2013-10-02 06:22:00,
2013-10-02 00:32:00,46.0,-99.9,-100.00,SW,233,6.0,7.0,-999,-99.99,,,-99.99,,2013-10-02 06:32:00,
2013-10-02 00:42:00,46.0,-99.9,-100.00,SW,233,6.0,7.0,-999,-99.99,,,-99.99,,2013-10-02 06:42:00,
2013-10-02 00:52:00,46.0,-99.9,-100.00,SW,233,6.0,7.0,-999,-99.99,,,-99.99,,2013-10-02 06:52:00,
2013-10-02 01:00:00,46.0,-99.9,-100.00,ENE,78,7.0,9.0,-999,-99.99,,,-99.99,,2013-10-02 07:00:00,
2013-10-02 01:22:00,46.0,-99.9,-100.00,ENE,78,7.0,9.0,-999,-99.99,,,-99.99,,2013-10-02 07:22:00,
2013-10-02 01:32:00,46.0,-99.9,-100.00,ENE,78,7.0,9.0,-999,-99.99,,,-99.99,,2013-10-02 07:32:00,
2013-10-02 01:42:00,46.0,-99.9,-100.00,ENE,78,7.0,9.0,-999,-99.99,,,-99.99,,2013-10-02 07:42:00,
2013-10-02 01:52:00,46.0,-99.9,-100.00,ENE,78,7.0,9.0,-999,-99.99,,,-99.99,,2013-10-02 07:52:00,
2013-10-02 02:00:00,46.0,-99.9,-100.00,ESE,117,7.0,9.0,-999,-99.99,,,-99.99,,2013-10-02 08:00:00,
2013-10-02 02:22:00,46.0,-99.9,-100.00,ESE,117,7.0,9.0,-999,-99.99,,,-99.99,,2013-10-02 08:22:00,
2013-10-02 02:32:00,46.0,-99.9,-100.00,ESE,117,7.0,9.0,-999,-99.99,,,-99.99,,2013-10-02 08:32:00,
2013-10-02 02:42:00,46.0,-99.9,-100.00,ESE,117,7.0,9.0,-999,-99.99,,,-99.99,,2013-10-02 08:42:00,
2013-10-02 02:52:00,46.0,-99.9,-100.00,ESE,117,7.0,9.0,-999,-99.99,,,-99.99,,2013-10-02 08:52:00,
2013-10-02 03:00:00,43.0,-99.9,-100.00,ESE,117,5.0,6.0,-999,-99.99,,,-99.99,,2013-10-02 09:00:00,
2013-10-02 03:43:00,43.0,-99.9,-100.00,ESE,117,5.0,6.0,-999,-99.99,,,-99.99,,2013-10-02 09:43:00,
2013-10-02 03:54:00,43.0,-99.9,-100.00,ESE,117,5.0,6.0,-999,-99.99,,,-99.99,,2013-10-02 09:54:00,
2013-10-02 04:00:00,40.0,-99.9,-100.00,SSE,167,5.0,6.0,-999,-99.99,,,-99.99,,2013-10-02 10:00:00,
2013-10-02 04:42:00,40.0,-99.9,-100.00,SSE,167,5.0,6.0,-999,-99.99,,,-99.99,,2013-10-02 10:42:00,
2013-10-02 04:53:00,40.0,-99.9,-100.00,SSE,167,5.0,6.0,-999,-99.99,,,-99.99,,2013-10-02 10:53:00,
2013-10-02 05:00:00,40.0,-99.9,-100.00,ENE,74,1.0,3.0,-999,-99.99,,,-99.99,,2013-10-02 11:00:00,
2013-10-02 05:43:00,40.0,-99.9,-100.00,ENE,74,1.0,3.0,-999,-99.99,,,-99.99,,2013-10-02 11:43:00,
2013-10-02 05:52:00,40.0,-99.9,-100.00,ENE,74,1.0,3.0,-999,-99.99,,,-99.99,,2013-10-02 11:52:00,
2013-10-02 06:00:00,38.0,-99.9,-100.00,East,96,4.0,5.0,-999,-99.99,,,-99.99,,2013-10-02 12:00:00,
2013-10-02 06:22:00,38.0,-99.9,-100.00,East,96,4.0,5.0,-999,-99.99,,,-99.99,,2013-10-02 12:22:00,
2013-10-02 06:32:00,38.0,-99.9,-100.00,East,96,4.0,5.0,-999,-99.99,,,-99.99,,2013-10-02 12:32:00,
2013-10-02 06:42:00,38.0,-99.9,-100.00,East,96,4.0,5.0,-999,-99.99,,,-99.99,,2013-10-02 12:42:00,
2013-10-02 06:52:00,38.0,-99.9,-100.00,East,96,4.0,5.0,-999,-99.99,,,-99.99,,2013-10-02 12:52:00,
2013-10-02 07:00:00,39.0,-99.9,-100.00,SE,143,4.0,6.0,-999,-99.99,,,-99.99,,2013-10-02 13:00:00,
2013-10-02 07:42:00,39.0,-99.9,-100.00,SE,143,4.0,6.0,-999,-99.99,,,-99.99,,2013-10-02 13:42:00,
2013-10-02 07:52:00,39.0,-99.9,-100.00,SE,143,4.0,6.0,-999,-99.99,,,-99.99,,2013-10-02 13:52:00,
2013-10-02 08:00:00,40.0,-99.9,-100.00,SSW,210,7.0,8.0,-999,-99.99,,,-99.99,,2013-10-02 14:00:00,
2013-10-02 08:42:00,40.0,-99.9,-100.00,SSW,210,7.0,8.0,-999,-99.99,,,-99.99,,2013-10-02 14:42:00,
2013-10-02 08:52:00,40.0,-99.9,-100.00,SSW,210,7.0,8.0,-999,-99.99,,,-99.99,,2013-10-02 14:52:00,
2013-10-02 09:00:00,47.0,-99.9,-100.00,ESE,121,6.0,8.0,-999,-99.99,,,-99.99,,2013-10-02 15:00:00,
2013-10-02 09:43:00,47.0,-99.9,-100.00,ESE,121,6.0,8.0,-999,-99.99,,,-99.99,,2013-10-02 15:43:00,
2013-10-02 09:54:00,47.0,-99.9,-100.00,ESE,121,6.0,8.0,-999,-99.99,,,-99.99,,2013-10-02 15:54:00,
2013-10-02 10:00:00,48.0,-99.9,-100.00,ENE,69,11.0,13.0,-999,-99.99,,,-99.99,,2013-10-02 16:00:00,
2013-10-02 10:43:00,48.0,-99.9,-100.00,ENE,69,11.0,13.0,-999,-99.99,,,-99.99,,2013-10-02 16:43:00,
2013-10-02 10:53:00,48.0,-99.9,-100.00,ENE,69,11.0,13.0,-999,-99.99,,,-99.99,,2013-10-02 16:53:00,
2013-10-02 11:00:00,49.0,-99.9,-100.00,NE,48,6.0,7.0,-999,-99.99,,,-99.99,,2013-10-02 17:00:00,
2013-10-02 11:42:00,49.0,-99.9,-100.00,NE,48,6.0,7.0,-999,-99.99,,,-99.99,,2013-10-02 17:42:00,
2013-10-02 11:53:00,49.0,-99.9,-100.00,NE,48,6.0,7.0,-999,-99.99,,,-99.99,,2013-10-02 17:53:00,
2013-10-02 12:00:00,51.0,-99.9,-100.00,ENE,73,6.0,8.0,-999,-99.99,,,-99.99,,2013-10-02 18:00:00,
2013-10-02 12:22:00,51.0,-99.9,-100.00,ENE,73,6.0,8.0,-999,-99.99,,,-99.99,,2013-10-02 18:22:00,
2013-10-02 12:32:00,51.0,-99.9,-100.00,ENE,73,6.0,8.0,-999,-99.99,,,-99.99,,2013-10-02 18:32:00,
2013-10-02 12:42:00,51.0,-99.9,-100.00,ENE,73,6.0,8.0,-999,-99.99,,,-99.99,,2013-10-02 18:42:00,
2013-10-02 12:52:00,51.0,-99.9,-100.00,ENE,73,6.0,8.0,-999,-99.99,,,-99.99,,2013-10-02 18:52:00,
2013-10-02 13:00:00,51.0,-99.9,-100.00,ESE,112,1.0,3.0,-999,-99.99,,,-99.99,,2013-10-02 19:00:00,
2013-10-02 13:22:00,51.0,-99.9,-100.00,ESE,112,1.0,3.0,-999,-99.99,,,-99.99,,2013-10-02 19:22:00,
2013-10-02 13:32:00,51.0,-99.9,-100.00,ESE,112,1.0,3.0,-999,-99.99,,,-99.99,,2013-10-02 19:32:00,
2013-10-02 13:42:00,51.0,-99.9,-100.00,ESE,112,1.0,3.0,-999,-99.99,,,-99.99,,2013-10-02 19:42:00,
2013-10-02 13:52:00,51.0,-99.9,-100.00,ESE,112,1.0,3.0,-999,-99.99,,,-99.99,,2013-10-02 19:52:00,
2013-10-02 14:00:00,53.0,-99.9,-100.00,NNW,335,6.0,8.0,-999,-99.99,,,-99.99,,2013-10-02 20:00:00,
2013-10-02 14:22:00,53.0,-99.9,-100.00,NNW,335,6.0,8.0,-999,-99.99,,,-99.99,,2013-10-02 20:22:00,
2013-10-02 14:32:00,53.0,-99.9,-100.00,NNW,335,6.0,8.0,-999,-99.99,,,-99.99,,2013-10-02 20:32:00,
2013-10-02 14:42:00,53.0,-99.9,-100.00,NNW,335,6.0,8.0,-999,-99.99,,,-99.99,,2013-10-02 20:42:00,
2013-10-02 14:52:00,53.0,-99.9,-100.00,NNW,335,6.0,8.0,-999,-99.99,,,-99.99,,2013-10-02 20:52:00,
2013-10-02 15:00:00,54.0,-99.9,-100.00,North,2,1.0,4.0,-999,-99.99,,,-99.99,,2013-10-02 21:00:00,
2013-10-02 15:44:00,54.0,-99.9,-100.00,North,2,1.0,4.0,-999,-99.99,,,-99.99,,2013-10-02 21:44:00,
2013-10-02 15:55:00,54.0,-99.9,-100.00,North,2,1.0,4.0,-999,-99.99,,,-99.99,,2013-10-02 21:55:00,
2013-10-02 16:00:00,53.0,-99.9,-100.00,NNW,340,5.0,6.0,-999,-99.99,,,-99.99,,2013-10-02 22:00:00,
2013-10-02 16:44:00,53.0,-99.9,-100.00,NNW,340,5.0,6.0,-999,-99.99,,,-99.99,,2013-10-02 22:44:00,
2013-10-02 16:54:00,53.0,-99.9,-100.00,NNW,340,5.0,6.0,-999,-99.99,,,-99.99,,2013-10-02 22:54:00,
2013-10-02 17:00:00,53.0,-99.9,-100.00,NW,319,4.0,8.0,-999,-99.99,,,-99.99,,2013-10-02 23:00:00,
2013-10-02 17:42:00,53.0,-99.9,-100.00,NW,319,4.0,8.0,-999,-99.99,,,-99.99,,2013-10-02 23:42:00,
2013-10-02 17:52:00,53.0,-99.9,-100.00,NW,319,4.0,8.0,-999,-99.99,,,-99.99,,2013-10-02 23:52:00,
2013-10-02 18:00:00,51.0,-99.9,-100.00,NW,322,4.0,5.0,-999,-99.99,,,-99.99,,2013-10-03 00:00:00,
2013-10-02 18:42:00,51.0,-99.9,-100.00,NW,322,4.0,5.0,-999,-99.99,,,-99.99,,2013-10-03 00:42:00,
2013-10-02 18:52:00,51.0,-99.9,-100.00,NW,322,4.0,5.0,-999,-99.99,,,-99.99,,2013-10-03 00:52:00,
2013-10-02 19:00:00,50.0,-99.9,-100.00,NNE,22,8.0,10.0,-999,-99.99,,,-99.99,,2013-10-03 01:00:00,
2013-10-02 19:42:00,50.0,-99.9,-100.00,NNE,22,8.0,10.0,-999,-99.99,,,-99.99,,2013-10-03 01:42:00,
2013-10-02 19:52:00,50.0,-99.9,-100.00,NNE,22,8.0,10.0,-999,-99.99,,,-99.99,,2013-10-03 01:52:00,
2013-10-02 20:00:00,49.0,-99.9,-100.00,NW,326,4.0,5.0,-999,-99.99,,,-99.99,,2013-10-03 02:00:00,
2013-10-02 20:52:00,49.0,-99.9,-100.00,NW,326,4.0,5.0,-999,-99.99,,,-99.99,,2013-10-03 02:52:00,
2013-10-02 21:00:00,45.0,-99.9,-100.00,South,189,6.0,8.0,-999,-99.99,,,-99.99,,2013-10-03 03:00:00,
2013-10-02 21:45:00,45.0,-99.9,-100.00,South,189,6.0,8.0,-999,-99.99,,,-99.99,,2013-10-03 03:45:00,
2013-10-02 21:55:00,45.0,-99.9,-100.00,South,189,6.0,8.0,-999,-99.99,,,-99.99,,2013-10-03 03:55:00,
2013-10-02 22:00:00,45.0,-99.9,-100.00,South,188,3.0,4.0,-999,-99.99,,,-99.99,,2013-10-03 04:00:00,
2013-10-02 22:44:00,45.0,-99.9,-100.00,South,188,3.0,4.0,-999,-99.99,,,-99.99,,2013-10-03 04:44:00,
2013-10-02 22:53:00,45.0,-99.9,-100.00,South,188,3.0,4.0,-999,-99.99,,,-99.99,,2013-10-03 04:53:00,
2013-10-02 23:00:00,45.0,-99.9,-100.00,East,86,2.0,2.0,-999,-99.99,,,-99.99,,2013-10-03 05:00:00,
2013-10-02 23:44:00,45.0,-99.9,-100.00,East,86,2.0,2.0,-999,-99.99,,,-99.99,,2013-10-03 05:44:00,
2013-10-02 23:52:00,45.0,-99.9,-100.00,East,86,2.0,2.0,-999,-99.99,,,-99.99,,2013-10-03 05:52:00,